createdAt,value
2023-03-01T00:02:25.705Z,102195.44
2023-03-01T00:05:52.904Z,102189.94
2023-03-01T00:09:20.278Z,102197.74
2023-03-01T00:12:47.713Z,102195.05
2023-03-01T00:16:18.326Z,102193.41
2023-03-01T00:19:45.564Z,102196.96
2023-03-01T00:23:12.798Z,102188.58
2023-03-01T00:26:40.305Z,102187.99
2023-03-01T00:30:09.717Z,102178.37
2023-03-01T00:33:35.202Z,102181.79
2023-03-01T00:37:06.727Z,102179.93
2023-03-01T00:40:37.116Z,102175.46
2023-03-01T00:44:04.557Z,102168.59
2023-03-01T00:47:33.744Z,102163.13
2023-03-01T00:51:05.879Z,102162.23
2023-03-01T00:54:33.259Z,102156.58
2023-03-01T00:58:00.387Z,102155.65
2023-03-01T01:01:31.626Z,102154.08
2023-03-01T01:04:59.439Z,102151.31
2023-03-01T01:08:26.611Z,102150.42
2023-03-01T01:11:54.467Z,102152.02
2023-03-01T01:15:21.829Z,102151.70
2023-03-01T01:18:49.269Z,102147.19
2023-03-01T01:22:16.389Z,102144.21
2023-03-01T01:25:44.353Z,102141.17
2023-03-01T01:29:11.966Z,102143.75
2023-03-01T01:32:39.250Z,102143.44
2023-03-01T01:36:10.624Z,102144.46
2023-03-01T01:39:38.003Z,102149.36
2023-03-01T01:43:05.297Z,102149.23
2023-03-01T01:46:35.099Z,102146.95
2023-03-01T01:50:03.232Z,102142.99
2023-03-01T01:53:30.944Z,102143.52
2023-03-01T01:57:02.562Z,102134.48
2023-03-01T02:00:31.447Z,102130.13
2023-03-01T02:03:58.929Z,102130.80
2023-03-01T02:07:27.996Z,102124.25
2023-03-01T02:10:56.879Z,102120.27
2023-03-01T02:14:24.189Z,102122.55
2023-03-01T02:17:51.543Z,102119.38
2023-03-01T02:21:32.623Z,102113.52
2023-03-01T02:25:11.630Z,102103.20
2023-03-01T02:28:41.345Z,102092.87
2023-03-01T02:32:09.248Z,102082.59
2023-03-01T02:35:40.000Z,102081.09
2023-03-01T02:39:15.258Z,102086.26
2023-03-01T02:42:49.744Z,102084.77
2023-03-01T02:46:21.198Z,102080.98
2023-03-01T02:49:48.487Z,102078.95
2023-03-01T02:53:18.908Z,102070.48
2023-03-01T02:56:49.833Z,102064.62
2023-03-01T03:00:23.318Z,102064.88
2023-03-01T03:03:51.126Z,102071.13
2023-03-01T03:07:18.743Z,102076.63
2023-03-01T03:10:46.649Z,102076.89
2023-03-01T03:14:16.097Z,102068.72
2023-03-01T03:17:46.575Z,102067.72
2023-03-01T03:21:15.547Z,102067.80
2023-03-01T03:24:42.895Z,102060.98
2023-03-01T03:28:11.627Z,102063.80
2023-03-01T03:31:38.887Z,102061.30
2023-03-01T03:35:10.447Z,102058.98
2023-03-01T03:38:37.621Z,102057.54
2023-03-01T03:42:04.911Z,102056.15
2023-03-01T03:45:34.382Z,102060.20
2023-03-01T03:49:01.601Z,102063.34
2023-03-01T03:52:28.721Z,102065.79
2023-03-01T03:55:56.276Z,102063.46
2023-03-01T03:59:23.473Z,102068.71
2023-03-01T04:02:51.094Z,102062.11
2023-03-01T04:06:18.761Z,102061.02
2023-03-01T04:09:46.059Z,102059.14
2023-03-01T04:13:16.035Z,102054.79
2023-03-01T04:16:43.324Z,102050.35
2023-03-01T04:20:13.248Z,102051.39
2023-03-01T04:23:41.861Z,102046.39
2023-03-01T04:27:09.019Z,102045.67
2023-03-01T04:30:38.707Z,102044.34
2023-03-01T04:34:15.164Z,102049.14
2023-03-01T04:37:42.731Z,102054.41
2023-03-01T04:41:11.786Z,102055.34
2023-03-01T04:44:38.861Z,102059.44
2023-03-01T04:48:06.857Z,102058.31
2023-03-01T04:51:34.624Z,102052.88
2023-03-01T04:55:01.857Z,102055.14
2023-03-01T04:58:30.759Z,102049.81
2023-03-01T05:01:59.041Z,102048.79
2023-03-01T05:05:28.251Z,102049.88
2023-03-01T05:08:55.382Z,102040.00
2023-03-01T05:12:22.674Z,102041.69
2023-03-01T05:15:51.141Z,102046.58
2023-03-01T05:19:23.926Z,102045.19
2023-03-01T05:22:51.221Z,102047.19
2023-03-01T05:26:28.370Z,102040.47
2023-03-01T05:29:56.097Z,102039.20
2023-03-01T05:33:23.272Z,102044.41
2023-03-01T05:36:52.282Z,102049.70
2023-03-01T05:40:22.564Z,102051.35
2023-03-01T05:43:49.627Z,102049.98
2023-03-01T05:47:16.674Z,102055.64
2023-03-01T05:50:45.717Z,102059.21
2023-03-01T05:54:13.215Z,102059.63
2023-03-01T05:57:40.342Z,102063.64
2023-03-01T06:01:08.103Z,102065.71
2023-03-01T06:04:35.178Z,102063.05
2023-03-01T06:08:04.982Z,102060.92
2023-03-01T06:11:32.594Z,102055.28
2023-03-01T06:14:59.671Z,102049.45
2023-03-01T06:18:26.838Z,102045.43
2023-03-01T06:21:53.885Z,102043.88
2023-03-01T06:25:23.441Z,102036.89
2023-03-01T06:28:50.564Z,102031.35
2023-03-01T06:32:17.725Z,102031.77
2023-03-01T06:35:45.233Z,102034.02
2023-03-01T06:39:12.465Z,102033.71
2023-03-01T06:42:40.535Z,102025.10
2023-03-01T06:46:09.691Z,102018.58
2023-03-01T06:49:36.774Z,102015.29
2023-03-01T06:53:04.625Z,102006.29
2023-03-01T06:56:31.968Z,101999.10
2023-03-01T06:59:59.730Z,101997.42
2023-03-01T07:03:27.281Z,102001.48
2023-03-01T07:06:56.325Z,102006.61
2023-03-01T07:10:23.636Z,102005.30
2023-03-01T07:13:50.802Z,102003.48
2023-03-01T07:17:17.924Z,102004.27
2023-03-01T07:20:45.193Z,102002.86
2023-03-01T07:24:12.581Z,102003.34
2023-03-01T07:27:39.792Z,102014.48
2023-03-01T07:31:07.607Z,102014.95
2023-03-01T07:34:35.048Z,102019.86
2023-03-01T07:38:02.224Z,102024.06
2023-03-01T07:41:29.664Z,102019.37
2023-03-01T07:44:56.924Z,102019.34
2023-03-01T07:48:24.153Z,102020.58
2023-03-01T07:51:51.286Z,102021.64
2023-03-01T07:55:19.103Z,102018.48
2023-03-01T07:58:49.824Z,102016.96
2023-03-01T08:02:18.061Z,102012.89
2023-03-01T08:05:45.360Z,102014.10
2023-03-01T08:09:12.744Z,102017.52
2023-03-01T08:12:40.066Z,102016.06
2023-03-01T08:16:09.467Z,102016.52
2023-03-01T08:19:36.919Z,102010.81
2023-03-01T08:23:04.030Z,102015.09
2023-03-01T08:26:31.522Z,102010.77
2023-03-01T08:29:58.993Z,102006.89
2023-03-01T08:33:26.501Z,102012.05
2023-03-01T08:36:53.850Z,102010.29
2023-03-01T08:40:21.615Z,102006.70
2023-03-01T08:43:48.743Z,102008.77
2023-03-01T08:47:16.045Z,102007.02
2023-03-01T08:50:43.411Z,102006.88
2023-03-01T08:54:13.972Z,102006.83
2023-03-01T08:57:41.090Z,101999.59
2023-03-01T09:01:13.372Z,101996.27
2023-03-01T09:04:40.573Z,101993.11
2023-03-01T09:08:09.997Z,101993.97
2023-03-01T09:11:37.713Z,101991.94
2023-03-01T09:15:05.353Z,101987.09
2023-03-01T09:18:32.858Z,101983.01
2023-03-01T09:22:00.123Z,101974.91
2023-03-01T09:25:27.418Z,101970.91
2023-03-01T09:28:56.123Z,101967.14
2023-03-01T09:32:23.569Z,101960.48
2023-03-01T09:35:50.882Z,101965.06
2023-03-01T09:39:18.884Z,101965.17
2023-03-01T09:42:55.290Z,101968.05
2023-03-01T09:46:24.471Z,101968.38
2023-03-01T09:50:04.314Z,101965.64
2023-03-01T09:53:34.358Z,101964.05
2023-03-01T09:57:20.637Z,101964.04
2023-03-01T10:00:52.135Z,101964.42
2023-03-01T10:04:39.361Z,101959.16
2023-03-01T10:08:37.544Z,101965.79
2023-03-01T10:12:11.251Z,101960.46
2023-03-01T10:15:43.144Z,101962.88
2023-03-01T10:19:25.270Z,101964.45
2023-03-01T10:22:53.543Z,101961.79
2023-03-01T10:26:37.354Z,101955.17
2023-03-01T10:30:17.222Z,101952.26
2023-03-01T10:33:43.354Z,101946.18
2023-03-01T10:37:16.109Z,101942.45
2023-03-01T10:40:56.159Z,101939.11
2023-03-01T10:44:48.154Z,101937.81
2023-03-01T10:48:20.650Z,101937.43
2023-03-01T10:51:50.029Z,101927.52
2023-03-01T10:55:30.094Z,101922.86
2023-03-01T10:59:05.438Z,101921.39
2023-03-01T11:02:37.168Z,101918.97
2023-03-01T11:06:22.833Z,101915.16
2023-03-01T11:09:50.132Z,101912.23
2023-03-01T11:13:21.307Z,101909.90
2023-03-01T11:16:51.142Z,101906.27
2023-03-01T11:20:29.057Z,101903.00
2023-03-01T11:23:56.666Z,101896.73
2023-03-01T11:27:27.449Z,101890.20
2023-03-01T11:31:08.247Z,101887.74
2023-03-01T11:34:46.942Z,101882.71
2023-03-01T11:38:27.422Z,101878.54
2023-03-01T11:42:18.255Z,101872.23
2023-03-01T11:45:59.241Z,101874.46
2023-03-01T11:49:50.213Z,101872.02
2023-03-01T11:53:39.438Z,101870.04
2023-03-01T11:57:16.191Z,101868.23
2023-03-01T12:01:02.728Z,101866.15
2023-03-01T12:05:08.707Z,101862.33
2023-03-01T12:08:43.834Z,101857.08
2023-03-01T12:12:40.702Z,101853.89
2023-03-01T12:16:36.020Z,101852.42
2023-03-01T12:20:16.814Z,101848.09
2023-03-01T12:24:03.266Z,101843.13
2023-03-01T12:27:55.655Z,101834.42
2023-03-01T12:31:51.048Z,101829.09
2023-03-01T12:35:56.415Z,101820.23
2023-03-01T12:39:38.962Z,101813.60
2023-03-01T12:43:28.655Z,101810.86
2023-03-01T12:47:01.703Z,101804.46
2023-03-01T12:50:39.572Z,101798.73
2023-03-01T12:54:16.667Z,101804.19
2023-03-01T12:57:48.448Z,101805.76
2023-03-01T13:01:25.274Z,101801.70
2023-03-01T13:05:19.586Z,101804.30
2023-03-01T13:08:52.036Z,101801.83
2023-03-01T13:12:54.941Z,101800.48
2023-03-01T13:16:39.785Z,101799.55
2023-03-01T13:20:18.979Z,101796.23
2023-03-01T13:23:51.650Z,101790.40
2023-03-01T13:27:30.432Z,101784.13
2023-03-01T13:30:57.796Z,101770.46
2023-03-01T13:34:55.560Z,101768.52
2023-03-01T13:38:48.030Z,101770.55
2023-03-01T13:42:42.149Z,101769.52
2023-03-01T13:46:19.151Z,101763.12
2023-03-01T13:49:51.180Z,101763.69
2023-03-01T13:53:21.958Z,101759.29
2023-03-01T13:56:49.323Z,101752.38
2023-03-01T14:00:37.237Z,101745.85
2023-03-01T14:04:05.824Z,101746.67
2023-03-01T14:07:33.021Z,101747.10
2023-03-01T14:11:27.330Z,101748.39
2023-03-01T14:15:02.309Z,101740.81
2023-03-01T14:18:35.821Z,101746.39
2023-03-01T14:22:14.884Z,101747.28
2023-03-01T14:25:48.872Z,101747.33
2023-03-01T14:29:29.945Z,101749.52
2023-03-01T14:32:59.141Z,101750.08
2023-03-01T14:36:30.858Z,101742.74
2023-03-01T14:39:59.916Z,101733.91
2023-03-01T14:43:28.041Z,101735.10
2023-03-01T14:46:59.059Z,101730.72
2023-03-01T14:50:29.429Z,101730.88
2023-03-01T14:53:57.679Z,101731.66
2023-03-01T14:57:27.573Z,101736.30
2023-03-01T15:00:54.689Z,101735.15
2023-03-01T15:04:23.764Z,101724.77
2023-03-01T15:07:51.857Z,101720.30
2023-03-01T15:11:25.916Z,101719.64
2023-03-01T15:15:03.214Z,101718.89
2023-03-01T15:18:33.601Z,101725.88
2023-03-01T15:22:00.877Z,101732.99
2023-03-01T15:25:30.641Z,101732.05
2023-03-01T15:28:59.334Z,101726.69
2023-03-01T15:32:32.849Z,101726.05
2023-03-01T15:36:02.061Z,101723.18
2023-03-01T15:39:44.335Z,101717.86
2023-03-01T15:43:48.616Z,101713.88
2023-03-01T15:47:33.870Z,101715.76
2023-03-01T15:51:02.567Z,101715.09
2023-03-01T15:54:31.155Z,101713.05
2023-03-01T15:58:07.628Z,101715.06
2023-03-01T16:01:35.832Z,101712.86
2023-03-01T16:05:03.015Z,101710.61
2023-03-01T16:08:30.308Z,101717.49
2023-03-01T16:11:57.814Z,101714.38
2023-03-01T16:15:27.207Z,101711.73
2023-03-01T16:18:55.726Z,101711.27
2023-03-01T16:22:26.215Z,101712.67
2023-03-01T16:25:53.686Z,101710.25
2023-03-01T16:29:20.936Z,101718.45
2023-03-01T16:32:50.435Z,101713.30
2023-03-01T16:36:18.727Z,101707.64
2023-03-01T16:39:46.008Z,101702.20
2023-03-01T16:43:13.830Z,101696.76
2023-03-01T16:46:44.115Z,101699.54
2023-03-01T16:50:13.130Z,101704.23
2023-03-01T16:53:41.940Z,101707.83
2023-03-01T16:57:08.981Z,101710.80
2023-03-01T17:00:37.361Z,101703.58
2023-03-01T17:04:05.456Z,101703.10
2023-03-01T17:07:34.355Z,101701.64
2023-03-01T17:11:08.613Z,101703.31
2023-03-01T17:14:35.738Z,101706.86
2023-03-01T17:18:03.873Z,101709.34
2023-03-01T17:21:31.841Z,101710.33
2023-03-01T17:24:59.249Z,101711.19
2023-03-01T17:28:28.480Z,101705.00
2023-03-01T17:31:56.742Z,101704.89
2023-03-01T17:35:24.613Z,101705.44
2023-03-01T17:38:52.771Z,101708.39
2023-03-01T17:42:20.050Z,101708.35
2023-03-01T17:45:50.710Z,101710.70
2023-03-01T17:49:18.438Z,101707.73
2023-03-01T17:52:45.953Z,101706.55
2023-03-01T17:56:14.172Z,101707.68
2023-03-01T17:59:41.977Z,101713.70
2023-03-01T18:03:09.747Z,101710.63
2023-03-01T18:06:38.988Z,101711.51
2023-03-01T18:10:07.751Z,101707.27
2023-03-01T18:13:34.854Z,101707.88
2023-03-01T18:17:06.535Z,101708.27
2023-03-01T18:20:34.732Z,101712.19
2023-03-01T18:24:02.424Z,101715.27
2023-03-01T18:27:31.234Z,101717.17
2023-03-01T18:31:04.102Z,101716.98
2023-03-01T18:34:31.805Z,101713.48
2023-03-01T18:37:58.870Z,101712.87
2023-03-01T18:41:27.538Z,101710.92
2023-03-01T18:44:55.039Z,101710.73
2023-03-01T18:48:22.266Z,101712.23
2023-03-01T18:51:51.047Z,101710.45
2023-03-01T18:55:18.717Z,101715.46
2023-03-01T18:58:46.383Z,101713.11
2023-03-01T19:02:15.891Z,101713.12
2023-03-01T19:05:46.218Z,101717.80
2023-03-01T19:09:15.264Z,101719.07
2023-03-01T19:12:42.605Z,101717.48
2023-03-01T19:16:11.686Z,101727.11
2023-03-01T19:19:39.885Z,101731.30
2023-03-01T19:23:07.013Z,101736.37
2023-03-01T19:26:35.219Z,101738.30
2023-03-01T19:30:02.721Z,101737.75
2023-03-01T19:33:31.030Z,101741.73
2023-03-01T19:36:58.124Z,101749.16
2023-03-01T19:40:25.349Z,101751.58
2023-03-01T19:43:52.443Z,101756.02
2023-03-01T19:47:19.745Z,101759.42
2023-03-01T19:50:47.483Z,101759.58
2023-03-01T19:54:19.913Z,101754.45
2023-03-01T19:57:47.120Z,101752.02
2023-03-01T20:01:20.928Z,101745.34
2023-03-01T20:04:48.026Z,101743.52
2023-03-01T20:08:15.227Z,101747.15
2023-03-01T20:11:42.560Z,101749.59
2023-03-01T20:15:11.749Z,101752.98
2023-03-01T20:18:39.242Z,101757.11
2023-03-01T20:22:06.450Z,101755.02
2023-03-01T20:25:36.003Z,101758.55
2023-03-01T20:29:03.097Z,101760.39
2023-03-01T20:32:30.352Z,101762.08
2023-03-01T20:35:57.548Z,101763.50
2023-03-01T20:39:24.868Z,101760.09
2023-03-01T20:42:52.129Z,101763.13
2023-03-01T20:46:19.237Z,101766.58
2023-03-01T20:49:46.425Z,101761.61
2023-03-01T20:53:13.648Z,101761.77
2023-03-01T20:56:41.020Z,101761.88
2023-03-01T21:00:10.838Z,101756.95
2023-03-01T21:03:38.529Z,101748.17
2023-03-01T21:07:05.620Z,101742.55
2023-03-01T21:10:33.743Z,101741.59
2023-03-01T21:14:01.678Z,101736.48
2023-03-01T21:17:29.105Z,101732.20
2023-03-01T21:20:56.558Z,101731.27
2023-03-01T21:24:23.864Z,101732.31
2023-03-01T21:27:51.038Z,101729.84
2023-03-01T21:31:19.597Z,101727.76
2023-03-01T21:34:48.203Z,101724.81
2023-03-01T21:38:15.325Z,101727.98
2023-03-01T21:41:42.416Z,101728.39
2023-03-01T21:45:10.953Z,101727.11
2023-03-01T21:48:39.955Z,101728.27
2023-03-01T21:52:08.576Z,101728.20
2023-03-01T21:55:35.796Z,101729.89
2023-03-01T21:59:03.577Z,101730.60
2023-03-01T22:02:32.141Z,101727.70
2023-03-01T22:06:00.813Z,101721.41
2023-03-01T22:09:28.119Z,101719.30
2023-03-01T22:12:55.775Z,101721.06
2023-03-01T22:16:24.980Z,101720.27
2023-03-01T22:19:52.210Z,101718.31
2023-03-01T22:23:19.484Z,101721.87
2023-03-01T22:26:48.569Z,101721.02
2023-03-01T22:30:16.867Z,101718.51
2023-03-01T22:33:44.070Z,101720.06
2023-03-01T22:37:11.163Z,101721.68
2023-03-01T22:40:39.219Z,101714.02
2023-03-01T22:44:08.217Z,101715.48
2023-03-01T22:47:37.552Z,101715.91
2023-03-01T22:51:04.856Z,101712.38
2023-03-01T22:54:32.244Z,101711.48
2023-03-01T22:57:59.346Z,101709.92
2023-03-01T23:01:28.867Z,101708.14
2023-03-01T23:04:56.461Z,101705.87
2023-03-01T23:08:23.759Z,101701.15
2023-03-01T23:11:52.076Z,101704.23
2023-03-01T23:15:19.500Z,101705.20
2023-03-01T23:18:47.220Z,101711.57
2023-03-01T23:22:14.347Z,101707.59
2023-03-01T23:25:41.712Z,101701.56
2023-03-01T23:29:09.382Z,101702.20
2023-03-01T23:32:40.385Z,101699.05
2023-03-01T23:36:09.386Z,101701.79
2023-03-01T23:39:36.687Z,101700.33
2023-03-01T23:43:04.455Z,101702.76
2023-03-01T23:46:34.682Z,101704.96
2023-03-01T23:50:02.145Z,101703.10
2023-03-01T23:53:30.642Z,101701.09
2023-03-01T23:56:57.873Z,101698.71
